هرات, افغانستان

06:59 PM AFT on مارس 05, 2015 (GMT +0430)
Herat | Change Station
CLOSE
Current Station
Airport
Location: Herat,
Elevation: 3163 ft
Nearby Weather Stations

Elev 3163 ft 34.21 °N, 62.23 °E | Updated 34 minutes ago

Mostly Cloudy
بیشتر ابری
57 °F
Feels Like 57 °F
N
2
باد متغير باد from غرب

امروز
High -- | Low -- °F
--% Chance of Precip.
دیروز
High -- | Low -- °F
Precip. -- در
6:45 AM 6:20 PM
ماه کامل, 100% visible
فشار 29.98 در
ديد 6.2 مايل، ميل (در برابر كيلومتر
ابری بیشتر ابری 4000 ft
قطره شبنم 36 °F
رطوبت 44%
بارش باران 0.00 در
برف عمیق Not available.
مادون قرمز 0 out of 12
Pollen Not available.
تمیزی هوا Not available.
Flu Activity Not available.
METAR OAHR 051355Z 26002KT 9999 BKN040 14/02 Q1015 RMK BKN VIS MIN 9999 BLU

More Conditions Fewer Conditions

فشار 29.98 در
ديد 6.2 مايل، ميل (در برابر كيلومتر
ابری بیشتر ابری 4000 ft
قطره شبنم 36 °F
رطوبت 44%
بارش باران 0.00 در
برف عمیق Not available.
مادون قرمز 0 out of 12
Pollen Not available.
تمیزی هوا Not available.
Flu Activity Not available.
METAR OAHR 051355Z 26002KT 9999 BKN040 14/02 Q1015 RMK BKN VIS MIN 9999 BLU

More Conditions Fewer Conditions

10-Day Weather Forecast

Almanac

ستاره شناسی

Mar. 05, 2015 Rise Set
وقت حقیقی
تاریک و روشن اجتماعی
تاریک روشن دریایی
شفق و فلق نجومی
ماه
میزان روشنایی روز
طول روز
Tomorrow will be .
, % of the Moon is Illuminated

Today's Extremes

Country Highs Country Lows

Community

WunderPhotos

Upload Photos

1,802,780 photos uploaded!

WunderBlogs® & News

Nearby

تمیزی هوا

  تمیزی هوا AQ Index آلاینده
Not available.

عمق برف

Station Depth Elevation

Earthquake Activity

شهر Distance Mag. Time & Date
Minimum magnitude displayed is 2.5.

Coastal Water Temperatures

منطقه درجه حرارت

Nearby Weather Stations